createdAt,value
2024-03-14T00:00:49.479Z,25.2
2024-03-14T00:02:50.130Z,25.2
2024-03-14T00:04:49.493Z,25.1
2024-03-14T00:06:49.728Z,24.4
2024-03-14T00:08:51.366Z,24.2
2024-03-14T00:10:49.770Z,25.4
2024-03-14T00:12:50.050Z,25.4
2024-03-14T00:14:49.405Z,23.8
2024-03-14T00:16:49.834Z,25.6
2024-03-14T00:18:50.271Z,26.4
2024-03-14T00:20:49.611Z,26.4
2024-03-14T00:22:49.840Z,25.8
2024-03-14T00:24:49.458Z,24.0
2024-03-14T00:26:49.724Z,24.3
2024-03-14T00:28:49.890Z,24.1
2024-03-14T00:30:50.139Z,22.6
2024-03-14T00:32:50.353Z,22.6
2024-03-14T00:34:49.778Z,22.4
2024-03-14T00:36:50.165Z,22.3
2024-03-14T00:38:49.577Z,22.3
2024-03-14T00:40:49.775Z,23.2
2024-03-14T00:42:50.004Z,24.7
2024-03-14T00:44:49.443Z,23.6
2024-03-14T00:46:49.831Z,25.4
2024-03-14T00:48:50.104Z,23.9
2024-03-14T00:50:50.352Z,23.9
2024-03-14T00:52:49.643Z,22.0
2024-03-14T00:54:49.896Z,23.0
2024-03-14T00:56:50.216Z,23.4
2024-03-14T00:58:50.291Z,23.4
2024-03-14T01:00:49.611Z,22.2
2024-03-14T01:02:49.953Z,23.8
2024-03-14T01:04:50.173Z,22.8
2024-03-14T01:06:49.346Z,23.3
2024-03-14T01:08:49.613Z,23.3
2024-03-14T01:10:50.057Z,22.9
2024-03-14T01:12:49.426Z,23.5
2024-03-14T01:14:49.720Z,23.7
2024-03-14T01:16:50.062Z,23.7
2024-03-14T01:18:49.484Z,22.4
2024-03-14T01:20:50.019Z,22.9
2024-03-14T01:22:50.299Z,21.9
2024-03-14T01:24:49.748Z,24.4
2024-03-14T01:26:49.960Z,23.5
2024-03-14T01:28:50.324Z,23.5
2024-03-14T01:30:49.758Z,23.7
2024-03-14T01:32:50.186Z,22.7
2024-03-14T01:34:49.544Z,26.8
2024-03-14T01:36:49.809Z,22.7
2024-03-14T01:38:50.002Z,22.7
2024-03-14T01:40:50.203Z,21.3
2024-03-14T01:42:50.224Z,25.4
2024-03-14T01:44:49.502Z,25.4
2024-03-14T01:46:49.928Z,23.5
2024-03-14T01:48:50.388Z,23.5
2024-03-14T01:50:49.695Z,20.8
2024-03-14T01:52:50.095Z,22.2
2024-03-14T01:54:50.288Z,26.1
2024-03-14T01:56:49.575Z,25.1
2024-03-14T01:58:49.934Z,25.1
2024-03-14T02:00:49.463Z,26.3
2024-03-14T02:02:49.798Z,23.4
2024-03-14T02:04:50.185Z,23.4
2024-03-14T02:06:49.422Z,25.6
2024-03-14T02:08:49.642Z,21.9
2024-03-14T02:10:49.822Z,25.4
2024-03-14T02:12:50.099Z,24.9
2024-03-14T02:14:49.441Z,23.6
2024-03-14T02:16:49.677Z,23.6
2024-03-14T02:18:49.950Z,24.5
2024-03-14T02:20:50.137Z,22.9
2024-03-14T02:22:49.502Z,22.9
2024-03-14T02:24:49.752Z,22.7
2024-03-14T02:26:49.992Z,22.7
2024-03-14T02:28:50.157Z,23.4
2024-03-14T02:30:49.377Z,24.2
2024-03-14T02:32:49.724Z,24.6
2024-03-14T02:34:50.057Z,21.7
2024-03-14T02:36:49.422Z,21.7
2024-03-14T02:38:49.627Z,21.7
2024-03-14T02:50:50.196Z,21.3
2024-03-14T02:52:49.521Z,21.3
2024-03-14T02:54:49.750Z,21.5
2024-03-14T02:56:50.269Z,21.5
2024-03-14T02:58:49.352Z,20.5
2024-03-14T03:00:49.626Z,21.7
2024-03-14T03:02:50.085Z,23.2
2024-03-14T03:04:49.427Z,23.2
2024-03-14T03:06:49.832Z,19.5
2024-03-14T03:08:50.252Z,21.5
2024-03-14T03:10:49.778Z,21.7
2024-03-14T03:12:50.144Z,19.2
2024-03-14T03:14:49.466Z,19.2
2024-03-14T03:16:49.932Z,21.4
2024-03-14T03:18:50.228Z,20.4
2024-03-14T03:20:49.542Z,23.8
2024-03-14T03:22:49.960Z,23.7
2024-03-14T03:24:50.170Z,23.7
2024-03-14T03:26:49.369Z,21.5
2024-03-14T03:28:49.590Z,22.2
2024-03-14T03:30:50.277Z,22.9
2024-03-14T03:32:49.725Z,22.3
2024-03-14T03:34:49.820Z,22.3
2024-03-14T03:36:50.086Z,20.2
2024-03-14T03:38:50.285Z,20.6
2024-03-14T03:40:49.479Z,22.0
2024-03-14T03:42:49.713Z,22.0
2024-03-14T03:44:49.933Z,16.9
2024-03-14T03:46:50.112Z,16.9
2024-03-14T03:48:50.447Z,16.9
2024-03-14T03:50:49.598Z,15.5
2024-03-14T03:52:49.560Z,15.5
2024-03-14T03:54:49.790Z,17.0
2024-03-14T03:56:50.031Z,16.5
2024-03-14T03:58:50.202Z,19.1
2024-03-14T04:00:49.415Z,19.1
2024-03-14T04:02:49.688Z,17.2
2024-03-14T04:04:50.043Z,20.5
2024-03-14T04:06:50.322Z,17.7
2024-03-14T04:08:49.796Z,18.6
2024-03-14T04:10:50.151Z,19.9
2024-03-14T04:12:49.525Z,19.9
2024-03-14T04:14:49.762Z,22.1
2024-03-14T04:16:49.930Z,22.2
2024-03-14T04:18:50.204Z,21.7
2024-03-14T04:20:49.421Z,22.2
2024-03-14T04:22:49.772Z,22.2
2024-03-14T04:24:50.053Z,21.2
2024-03-14T04:26:50.227Z,23.2
2024-03-14T04:28:49.410Z,22.9
2024-03-14T04:30:49.674Z,23.4
2024-03-14T04:32:50.105Z,23.4
2024-03-14T04:34:49.460Z,23.4
2024-03-14T04:36:49.719Z,22.8
2024-03-14T04:38:50.230Z,21.4
2024-03-14T04:40:49.720Z,21.4
2024-03-14T04:42:49.939Z,23.0
2024-03-14T04:44:49.951Z,24.5
2024-03-14T04:46:50.169Z,23.4
2024-03-14T04:48:49.406Z,25.3
2024-03-14T04:50:49.669Z,25.3
2024-03-14T04:52:49.848Z,23.6
2024-03-14T04:54:50.049Z,24.8
2024-03-14T04:56:49.421Z,24.7
2024-03-14T04:58:49.646Z,21.6
2024-03-14T05:00:50.128Z,21.6
2024-03-14T05:02:50.382Z,25.5
2024-03-14T05:04:49.674Z,22.8
2024-03-14T05:06:49.926Z,22.2
2024-03-14T05:08:50.158Z,23.0
2024-03-14T05:10:50.330Z,23.0
2024-03-14T05:12:50.086Z,22.1
2024-03-14T05:14:49.585Z,23.2
2024-03-14T05:16:49.758Z,20.9
2024-03-14T05:18:50.114Z,22.1
2024-03-14T05:20:49.483Z,22.1
2024-03-14T05:22:49.855Z,20.8
2024-03-14T05:24:50.079Z,20.8
2024-03-14T05:26:50.270Z,22.4
2024-03-14T05:28:49.463Z,20.8
2024-03-14T05:30:49.756Z,20.8
2024-03-14T05:32:50.257Z,20.4
2024-03-14T05:34:49.514Z,20.4
2024-03-14T05:36:49.781Z,22.9
2024-03-14T05:38:50.035Z,23.1
2024-03-14T05:40:49.355Z,23.1
2024-03-14T05:42:49.590Z,22.2
2024-03-14T05:44:49.971Z,22.2
2024-03-14T05:46:50.151Z,21.9
2024-03-14T05:48:50.255Z,21.9
2024-03-14T05:50:49.498Z,22.5
2024-03-14T05:52:49.627Z,24.4
2024-03-14T05:54:49.898Z,21.4
2024-03-14T05:56:50.303Z,21.4
2024-03-14T05:58:49.697Z,24.0
2024-03-14T06:00:50.120Z,21.8
2024-03-14T06:02:49.636Z,23.1
2024-03-14T06:04:49.937Z,22.6
2024-03-14T06:06:50.163Z,22.8
2024-03-14T06:08:49.641Z,22.8
2024-03-14T06:10:49.793Z,23.2
2024-03-14T06:12:50.008Z,23.4
2024-03-14T06:14:49.435Z,25.4
2024-03-14T06:16:49.818Z,25.4
2024-03-14T06:18:50.099Z,23.5
2024-03-14T06:20:49.526Z,23.0
2024-03-14T06:22:49.852Z,21.8
2024-03-14T06:24:50.146Z,21.8
2024-03-14T06:26:49.574Z,25.0
2024-03-14T06:28:49.894Z,22.8
2024-03-14T06:30:50.226Z,21.5
2024-03-14T06:32:50.355Z,22.9
2024-03-14T06:34:49.556Z,21.6
2024-03-14T06:36:49.571Z,21.6
2024-03-14T06:38:49.660Z,22.2
2024-03-14T06:40:50.013Z,22.5
2024-03-14T06:42:50.375Z,26.4
2024-03-14T06:44:49.645Z,24.8
2024-03-14T06:46:49.901Z,24.8
2024-03-14T06:48:50.134Z,25.7
2024-03-14T06:50:49.464Z,24.3
2024-03-14T06:52:49.687Z,22.5
2024-03-14T06:54:49.995Z,22.5
2024-03-14T06:56:49.584Z,24.0
2024-03-14T06:58:49.706Z,24.3
2024-03-14T07:00:50.007Z,22.2
2024-03-14T07:02:50.382Z,20.8
2024-03-14T07:04:49.727Z,20.8
2024-03-14T07:06:50.065Z,20.9
2024-03-14T07:08:50.179Z,22.3
2024-03-14T07:10:49.424Z,20.6
2024-03-14T07:12:49.652Z,22.1
2024-03-14T07:14:50.070Z,22.1
2024-03-14T07:16:49.463Z,25.3
2024-03-14T07:18:49.768Z,26.5
2024-03-14T07:20:50.123Z,28.0
2024-03-14T07:22:49.562Z,25.2
2024-03-14T07:24:49.928Z,25.2
2024-03-14T07:26:50.199Z,26.2
2024-03-14T07:28:50.342Z,26.6
2024-03-14T07:30:50.354Z,27.3
2024-03-14T07:32:49.682Z,25.8
2024-03-14T07:34:49.977Z,25.8
2024-03-14T07:36:50.219Z,25.6
2024-03-14T07:38:49.557Z,24.2
2024-03-14T07:40:49.822Z,25.9
2024-03-14T07:42:50.054Z,27.5
2024-03-14T07:44:50.271Z,27.5
2024-03-14T07:46:49.685Z,31.1
2024-03-14T07:48:49.734Z,29.3
2024-03-14T07:50:50.143Z,31.5
2024-03-14T07:52:49.499Z,31.5
2024-03-14T07:54:49.945Z,28.5
2024-03-14T07:56:49.474Z,25.0
2024-03-14T07:58:49.894Z,31.0
2024-03-14T08:00:50.346Z,27.1
2024-03-14T08:02:49.704Z,27.1
2024-03-14T08:04:49.902Z,22.4
2024-03-14T08:06:50.155Z,24.4
2024-03-14T08:08:49.591Z,24.4
2024-03-14T08:10:50.400Z,21.6
2024-03-14T08:12:49.775Z,22.8
2024-03-14T08:14:50.064Z,20.5
2024-03-14T08:16:49.401Z,23.8
2024-03-14T08:18:49.886Z,22.4
2024-03-14T08:20:50.049Z,22.4
2024-03-14T08:22:49.454Z,22.8
2024-03-14T08:24:49.865Z,23.0
2024-03-14T08:26:50.122Z,21.8
2024-03-14T08:28:50.282Z,21.5
2024-03-14T08:30:49.527Z,21.5
2024-03-14T08:32:49.742Z,22.3
2024-03-14T08:34:49.932Z,24.4
2024-03-14T08:36:50.161Z,22.3
2024-03-14T08:38:49.630Z,25.2
2024-03-14T08:40:50.062Z,24.4
2024-03-14T08:42:53.041Z,24.4
2024-03-14T08:44:49.614Z,22.1
2024-03-14T08:46:50.039Z,21.6
2024-03-14T08:48:50.241Z,22.8
2024-03-14T08:50:49.433Z,22.8
2024-03-14T08:52:49.649Z,19.9
2024-03-14T08:54:49.908Z,24.6
2024-03-14T08:56:50.324Z,24.6
2024-03-14T08:58:49.700Z,21.5
2024-03-14T09:00:50.000Z,21.5
2024-03-14T09:02:50.417Z,20.6
2024-03-14T09:04:49.943Z,22.2
2024-03-14T09:06:50.190Z,21.1
2024-03-14T09:08:49.575Z,21.1
2024-03-14T09:10:49.785Z,21.1
2024-03-14T09:12:49.880Z,21.0
2024-03-14T09:14:50.045Z,18.7
2024-03-14T09:16:49.415Z,22.2
2024-03-14T09:18:49.902Z,22.2
2024-03-14T09:20:50.320Z,21.0
2024-03-14T09:22:49.662Z,22.4
2024-03-14T09:24:49.684Z,22.4
2024-03-14T09:26:50.121Z,19.8
2024-03-14T09:28:50.283Z,19.8
2024-03-14T09:30:49.623Z,20.2
2024-03-14T09:32:50.006Z,20.6
2024-03-14T09:34:49.347Z,20.1
2024-03-14T09:36:49.585Z,19.4
2024-03-14T09:38:50.010Z,19.4
2024-03-14T09:40:49.383Z,19.4
2024-03-14T09:42:49.417Z,20.3
2024-03-14T09:44:49.647Z,20.3
2024-03-14T09:46:49.858Z,20.7
2024-03-14T09:48:50.072Z,20.7
2024-03-14T09:50:49.431Z,17.6
2024-03-14T09:52:49.681Z,17.8
2024-03-14T09:54:49.926Z,18.4
2024-03-14T09:56:50.165Z,19.2
2024-03-14T09:58:50.799Z,19.2
2024-03-14T10:00:50.449Z,24.4
2024-03-14T10:02:49.768Z,21.5
2024-03-14T10:04:49.974Z,21.5
2024-03-14T10:06:50.434Z,18.4
2024-03-14T10:08:50.387Z,18.4
2024-03-14T10:10:50.047Z,19.7
2024-03-14T10:12:49.488Z,14.6
2024-03-14T10:14:49.826Z,14.6
2024-03-14T10:16:50.123Z,13.5
2024-03-14T10:18:49.565Z,14.7
2024-03-14T10:20:49.897Z,14.3
2024-03-14T10:22:50.825Z,13.1
2024-03-14T10:24:49.555Z,12.9
2024-03-14T10:26:49.927Z,14.0
2024-03-14T10:28:50.159Z,14.0
2024-03-14T10:30:49.586Z,17.4
2024-03-14T10:32:49.814Z,13.8
2024-03-14T10:34:50.310Z,15.8
2024-03-14T10:36:49.700Z,14.1
2024-03-14T10:38:51.999Z,14.1
2024-03-14T10:40:49.623Z,13.1
2024-03-14T10:42:49.861Z,13.6
2024-03-14T10:44:50.275Z,15.3
2024-03-14T10:46:49.662Z,15.3
2024-03-14T10:48:50.112Z,12.5
2024-03-14T10:50:49.526Z,9.7
2024-03-14T10:52:49.946Z,12.3
2024-03-14T10:54:50.156Z,12.0
2024-03-14T10:56:49.585Z,12.0
2024-03-14T10:58:49.792Z,11.7
2024-03-14T11:00:50.040Z,13.4
2024-03-14T11:02:49.384Z,12.2
2024-03-14T11:04:49.846Z,12.3
2024-03-14T11:06:50.052Z,12.3
2024-03-14T11:08:50.259Z,13.1
2024-03-14T11:10:49.488Z,12.2
2024-03-14T11:12:49.877Z,12.4
2024-03-14T11:14:50.290Z,12.4
2024-03-14T11:16:49.735Z,11.8
2024-03-14T11:18:49.930Z,12.1
2024-03-14T11:20:50.133Z,14.6
2024-03-14T11:22:49.556Z,14.6
2024-03-14T11:24:49.996Z,12.4
2024-03-14T11:26:49.578Z,12.4
2024-03-14T11:28:49.795Z,12.4
2024-03-14T11:30:49.982Z,11.5
2024-03-14T11:32:49.409Z,11.5
2024-03-14T11:34:49.845Z,11.7
2024-03-14T11:36:50.303Z,11.6
2024-03-14T11:38:49.444Z,12.6
2024-03-14T11:40:49.699Z,13.5
2024-03-14T11:42:50.090Z,13.7
2024-03-14T11:44:49.478Z,13.7
2024-03-14T11:46:49.734Z,12.7
2024-03-14T11:48:50.127Z,11.3
2024-03-14T11:50:49.524Z,11.7
2024-03-14T11:52:49.785Z,11.7
2024-03-14T11:54:50.009Z,12.8
2024-03-14T11:56:50.270Z,12.2
2024-03-14T11:58:49.673Z,11.1
2024-03-14T12:00:50.106Z,11.1
2024-03-14T12:02:49.648Z,11.9
2024-03-14T12:04:50.075Z,10.8
2024-03-14T12:06:50.274Z,10.5
2024-03-14T12:08:49.478Z,11.2
2024-03-14T12:10:49.924Z,11.1
2024-03-14T12:12:50.120Z,10.7
2024-03-14T12:14:50.307Z,10.7
2024-03-14T12:16:49.541Z,10.5
2024-03-14T12:18:49.836Z,10.3
2024-03-14T12:20:50.166Z,10.6
2024-03-14T12:22:50.206Z,10.6
2024-03-14T12:24:49.406Z,10.7
2024-03-14T12:26:49.614Z,11.2
2024-03-14T12:28:50.097Z,13.3
2024-03-14T12:30:49.422Z,13.3
2024-03-14T12:32:49.691Z,10.0
2024-03-14T12:34:50.090Z,10.6
2024-03-14T12:36:49.505Z,10.6
2024-03-14T12:38:49.953Z,9.7
2024-03-14T12:40:50.131Z,13.3
2024-03-14T12:42:49.586Z,13.3
2024-03-14T12:44:49.721Z,10.2
2024-03-14T12:46:49.980Z,8.3
2024-03-14T12:48:50.762Z,11.6
2024-03-14T12:50:50.205Z,10.5
2024-03-14T12:52:49.637Z,10.5
2024-03-14T12:54:49.836Z,9.6
2024-03-14T12:56:50.036Z,10.7
2024-03-14T12:58:50.210Z,8.0
2024-03-14T13:00:49.529Z,8.0
2024-03-14T13:02:49.911Z,8.8
2024-03-14T13:04:50.296Z,8.2
2024-03-14T13:06:49.578Z,8.8
2024-03-14T13:08:49.922Z,8.9
2024-03-14T13:10:50.194Z,8.9
2024-03-14T13:12:49.519Z,8.3
2024-03-14T13:14:49.758Z,8.0
2024-03-14T13:16:49.418Z,8.7
2024-03-14T13:18:49.642Z,7.7
2024-03-14T13:20:50.050Z,7.7
2024-03-14T13:22:49.657Z,8.7
2024-03-14T13:24:50.319Z,7.3
2024-03-14T13:26:49.441Z,8.8
2024-03-14T13:28:49.679Z,8.8
2024-03-14T13:30:50.172Z,8.0
2024-03-14T13:32:49.542Z,9.1
2024-03-14T13:34:49.927Z,8.8
2024-03-14T13:36:50.202Z,8.2
2024-03-14T13:38:50.540Z,8.2
2024-03-14T13:40:49.751Z,6.2
2024-03-14T13:42:50.148Z,5.7
2024-03-14T13:44:49.390Z,6.0
2024-03-14T13:46:49.600Z,6.4
2024-03-14T13:48:49.912Z,6.4
2024-03-14T13:50:51.685Z,5.7
2024-03-14T13:52:50.240Z,7.2
2024-03-14T13:54:49.434Z,6.7
2024-03-14T13:56:49.676Z,6.7
2024-03-14T13:58:49.889Z,8.1
2024-03-14T14:00:50.318Z,5.4
2024-03-14T14:02:49.731Z,5.9
2024-03-14T14:04:49.956Z,6.6
2024-03-14T14:06:49.389Z,7.9
2024-03-14T14:08:49.766Z,7.9
2024-03-14T14:10:49.997Z,7.9
2024-03-14T14:12:50.183Z,6.7
2024-03-14T14:14:49.385Z,7.7
2024-03-14T14:16:49.637Z,8.3
2024-03-14T14:18:49.982Z,8.3
2024-03-14T14:20:49.422Z,10.2
2024-03-14T14:22:49.699Z,12.0
2024-03-14T14:24:49.864Z,14.2
2024-03-14T14:26:50.307Z,6.1
2024-03-14T14:28:49.496Z,6.1
2024-03-14T14:30:49.757Z,8.4
2024-03-14T14:32:50.356Z,7.7
2024-03-14T14:34:49.757Z,9.9
2024-03-14T14:36:50.209Z,9.9
2024-03-14T14:38:49.612Z,6.3
2024-03-14T14:40:49.784Z,5.9
2024-03-14T14:42:50.041Z,6.8
2024-03-14T14:44:49.387Z,6.1
2024-03-14T14:46:49.627Z,6.1
2024-03-14T14:48:50.122Z,7.8
2024-03-14T14:50:50.246Z,5.6
2024-03-14T14:52:49.701Z,8.6
2024-03-14T14:54:49.944Z,8.6
2024-03-14T14:56:50.317Z,8.2
2024-03-14T14:58:49.718Z,6.0
2024-03-14T15:00:49.955Z,7.9
2024-03-14T15:02:50.281Z,7.7
2024-03-14T15:04:49.433Z,7.7
2024-03-14T15:06:49.758Z,12.1
2024-03-14T15:08:50.115Z,26.4
2024-03-14T15:10:49.526Z,8.5
2024-03-14T15:12:54.441Z,7.2
2024-03-14T15:14:49.921Z,5.7
2024-03-14T15:16:49.370Z,5.7
2024-03-14T15:18:50.285Z,9.9
2024-03-14T15:20:50.223Z,6.7
2024-03-14T15:22:49.595Z,5.9
2024-03-14T15:24:49.846Z,5.4
2024-03-14T15:26:50.034Z,5.4
2024-03-14T15:28:49.513Z,4.6
2024-03-14T15:30:49.948Z,6.2
2024-03-14T15:32:49.494Z,6.1
2024-03-14T15:34:49.872Z,6.1
2024-03-14T15:36:50.373Z,6.0
2024-03-14T15:38:49.684Z,6.9
2024-03-14T15:40:50.359Z,5.9
2024-03-14T15:42:49.586Z,5.9
2024-03-14T15:44:49.969Z,5.9
2024-03-14T15:46:50.152Z,4.7
2024-03-14T15:48:49.575Z,4.0
2024-03-14T15:50:49.824Z,4.0
2024-03-14T15:52:50.005Z,4.7
2024-03-14T15:54:50.176Z,4.7
2024-03-14T15:56:49.694Z,5.3
2024-03-14T15:58:50.059Z,6.9
2024-03-14T16:00:50.336Z,6.8
2024-03-14T16:02:49.751Z,6.5
2024-03-14T16:04:49.877Z,6.5
2024-03-14T16:06:50.131Z,5.1
2024-03-14T16:08:55.400Z,6.0
2024-03-14T16:10:50.233Z,4.5
2024-03-14T16:12:49.621Z,4.0
2024-03-14T16:14:50.652Z,4.0
2024-03-14T16:16:49.979Z,4.4
2024-03-14T16:18:50.411Z,5.0
2024-03-14T16:20:49.865Z,3.9
2024-03-14T16:22:50.031Z,5.3
2024-03-14T16:24:49.656Z,5.3
2024-03-14T16:26:49.891Z,4.4
2024-03-14T16:28:50.066Z,4.4
2024-03-14T16:30:50.353Z,4.5
2024-03-14T16:32:49.887Z,4.5
2024-03-14T16:34:50.119Z,5.0
2024-03-14T16:36:50.306Z,4.8
2024-03-14T16:38:49.946Z,4.5
2024-03-14T16:40:49.386Z,7.3
2024-03-14T16:42:49.591Z,7.3
2024-03-14T16:44:49.832Z,5.6
2024-03-14T16:46:50.026Z,7.2
2024-03-14T16:48:50.283Z,6.7
2024-03-14T16:50:49.604Z,6.7
2024-03-14T16:52:49.655Z,7.6
2024-03-14T16:54:49.890Z,7.0
2024-03-14T16:56:50.140Z,4.8
2024-03-14T16:58:49.466Z,8.1
2024-03-14T17:00:49.851Z,8.1
2024-03-14T17:02:50.166Z,4.2
2024-03-14T17:04:49.520Z,5.7
2024-03-14T17:06:49.829Z,6.3
2024-03-14T17:08:50.214Z,6.7
2024-03-14T17:10:49.567Z,5.3
2024-03-14T17:12:49.803Z,5.3
2024-03-14T17:14:50.029Z,4.8
2024-03-14T17:16:55.341Z,6.6
2024-03-14T17:18:49.750Z,6.6
2024-03-14T17:20:52.218Z,6.6
2024-03-14T17:22:50.059Z,4.9
2024-03-14T17:24:50.300Z,4.6
2024-03-14T17:26:49.484Z,5.8
2024-03-14T17:28:49.707Z,5.0
2024-03-14T17:30:50.288Z,5.0
2024-03-14T17:32:49.768Z,3.7
2024-03-14T17:34:49.354Z,5.0
2024-03-14T17:36:49.815Z,8.6
2024-03-14T17:38:50.017Z,7.4
2024-03-14T17:40:49.429Z,7.4
2024-03-14T17:42:49.767Z,9.8
2024-03-14T17:44:50.261Z,7.1
2024-03-14T17:46:49.624Z,5.4
2024-03-14T17:48:49.923Z,5.4
2024-03-14T17:50:50.297Z,5.8
2024-03-14T17:52:49.666Z,6.0
2024-03-14T17:54:49.943Z,6.6
2024-03-14T17:56:55.568Z,6.3
2024-03-14T17:58:49.457Z,6.3
2024-03-14T18:00:49.945Z,6.7
2024-03-14T18:02:50.359Z,5.8
2024-03-14T18:04:49.799Z,5.8
2024-03-14T18:06:50.097Z,5.9
2024-03-14T18:08:49.511Z,5.9
2024-03-14T18:10:49.744Z,6.8
2024-03-14T18:12:50.153Z,6.4
2024-03-14T18:14:49.465Z,6.9
2024-03-14T18:16:49.640Z,4.7
2024-03-14T18:18:50.191Z,4.7
2024-03-14T18:20:49.503Z,5.3
2024-03-14T18:22:49.905Z,9.7
2024-03-14T18:24:50.160Z,5.5
2024-03-14T18:26:49.536Z,5.4
2024-03-14T18:28:49.750Z,5.4
2024-03-14T18:30:50.063Z,9.4
2024-03-14T18:32:49.482Z,7.4
2024-03-14T18:34:50.006Z,5.0
2024-03-14T18:36:49.445Z,5.8
2024-03-14T18:38:49.955Z,5.8
2024-03-14T18:40:50.028Z,5.0
2024-03-14T18:42:49.889Z,8.6
2024-03-14T18:44:49.650Z,5.7
2024-03-14T18:46:49.859Z,6.0
2024-03-14T18:48:50.368Z,6.0
2024-03-14T18:50:49.718Z,6.0
2024-03-14T18:52:49.911Z,4.7
2024-03-14T18:54:50.402Z,4.7
2024-03-14T18:56:49.755Z,7.0
2024-03-14T18:58:49.974Z,8.2
2024-03-14T19:00:50.290Z,7.8
2024-03-14T19:02:50.233Z,7.8
2024-03-14T19:04:49.800Z,6.6
2024-03-14T19:06:49.901Z,6.6
2024-03-14T19:08:50.273Z,6.8
2024-03-14T19:10:49.521Z,6.6
2024-03-14T19:12:50.023Z,6.6
2024-03-14T19:14:50.459Z,5.5
2024-03-14T19:16:49.899Z,5.5
2024-03-14T19:18:50.308Z,8.1
2024-03-14T19:20:49.949Z,8.1
2024-03-14T19:22:50.153Z,8.1
2024-03-14T19:24:49.631Z,8.1
2024-03-14T19:26:49.964Z,7.4
2024-03-14T19:28:49.373Z,7.6
2024-03-14T19:30:49.881Z,8.5
2024-03-14T19:32:50.274Z,8.5
2024-03-14T19:34:49.847Z,8.5
2024-03-14T19:36:50.265Z,7.4
2024-03-14T19:38:49.675Z,8.1
2024-03-14T19:40:50.067Z,8.2
2024-03-14T19:42:49.541Z,8.2
2024-03-14T19:44:49.968Z,9.0
2024-03-14T19:46:50.227Z,10.8
2024-03-14T19:48:49.540Z,10.6
2024-03-14T19:50:49.741Z,10.8
2024-03-14T19:52:49.980Z,10.8
2024-03-14T19:54:50.155Z,10.0
2024-03-14T19:56:49.429Z,10.6
2024-03-14T19:58:49.606Z,9.3
2024-03-14T20:00:49.863Z,9.3
2024-03-14T20:02:50.279Z,8.8
2024-03-14T20:04:49.637Z,8.8
2024-03-14T20:06:49.914Z,8.7
2024-03-14T20:08:50.114Z,8.9
2024-03-14T20:10:49.518Z,8.9
2024-03-14T20:12:49.956Z,8.3
2024-03-14T20:14:50.382Z,9.0
2024-03-14T20:16:49.542Z,11.3
2024-03-14T20:18:49.809Z,10.6
2024-03-14T20:20:49.993Z,18.3
2024-03-14T20:22:49.419Z,20.9
2024-03-14T20:24:49.680Z,20.9
2024-03-14T20:26:49.830Z,14.8
2024-03-14T20:28:50.028Z,11.7
2024-03-14T20:30:50.333Z,9.2
2024-03-14T20:32:49.664Z,9.2
2024-03-14T20:34:50.246Z,9.6
2024-03-14T20:36:49.707Z,11.5
2024-03-14T20:38:50.118Z,11.0
2024-03-14T20:40:52.556Z,11.5
2024-03-14T20:42:49.688Z,11.5
2024-03-14T20:44:49.958Z,11.9
2024-03-14T20:46:50.148Z,11.5
2024-03-14T20:48:51.403Z,14.2
2024-03-14T20:50:50.231Z,9.2
2024-03-14T20:52:49.591Z,9.2
2024-03-14T20:54:49.831Z,9.6
2024-03-14T20:56:50.052Z,9.0
2024-03-14T20:58:49.465Z,9.5
2024-03-14T21:00:49.701Z,9.5
2024-03-14T21:02:50.137Z,8.5
2024-03-14T21:04:49.498Z,9.1
2024-03-14T21:06:50.029Z,8.4
2024-03-14T21:08:49.497Z,8.2
2024-03-14T21:10:49.713Z,8.2
2024-03-14T21:12:51.641Z,8.3
2024-03-14T21:14:50.209Z,6.8
2024-03-14T21:16:49.585Z,8.3
2024-03-14T21:18:50.041Z,6.9
2024-03-14T21:20:49.397Z,6.8
2024-03-14T21:22:49.744Z,6.8
2024-03-14T21:24:50.146Z,7.9
2024-03-14T21:26:49.420Z,10.0
2024-03-14T21:28:49.683Z,6.0
2024-03-14T21:30:50.022Z,11.9
2024-03-14T21:32:50.387Z,11.9
2024-03-14T21:34:49.909Z,7.3
2024-03-14T21:36:50.309Z,7.7
2024-03-14T21:38:49.603Z,9.5
2024-03-14T21:40:49.727Z,9.5
2024-03-14T21:42:49.967Z,9.4
2024-03-14T21:44:50.286Z,11.1
2024-03-14T21:46:49.575Z,10.4
2024-03-14T21:48:50.023Z,10.4
2024-03-14T21:50:50.253Z,11.0
2024-03-14T21:52:49.421Z,11.0
2024-03-14T21:54:49.665Z,10.0
2024-03-14T21:56:49.906Z,12.9
2024-03-14T21:58:54.541Z,12.9
2024-03-14T22:00:50.380Z,10.2
2024-03-14T22:02:49.713Z,9.5
2024-03-14T22:04:49.993Z,11.5
2024-03-14T22:06:50.382Z,11.5
2024-03-14T22:08:49.551Z,13.1
2024-03-14T22:10:49.766Z,13.7
2024-03-14T22:12:50.037Z,12.6
2024-03-14T22:14:49.446Z,11.9
2024-03-14T22:16:49.614Z,12.8
2024-03-14T22:18:49.764Z,12.8
2024-03-14T22:20:50.255Z,12.3
2024-03-14T22:22:49.502Z,14.2
2024-03-14T22:24:49.880Z,14.2
2024-03-14T22:26:50.065Z,13.8
2024-03-14T22:28:50.317Z,13.8
2024-03-14T22:30:55.871Z,13.8
2024-03-14T22:32:49.712Z,13.7
2024-03-14T22:34:50.154Z,16.2
2024-03-14T22:36:50.336Z,16.2
2024-03-14T22:38:49.592Z,14.2
2024-03-14T22:40:50.179Z,13.5
2024-03-14T22:42:49.764Z,14.6
2024-03-14T22:44:49.805Z,14.9
2024-03-14T22:46:50.018Z,14.6
2024-03-14T22:48:49.496Z,14.6
2024-03-14T22:50:49.862Z,13.4
2024-03-14T22:52:50.064Z,14.9
2024-03-14T22:54:50.271Z,13.4
2024-03-14T22:56:49.486Z,13.4
2024-03-14T22:58:49.704Z,13.1
2024-03-14T23:00:50.063Z,15.0
2024-03-14T23:02:49.537Z,13.4
2024-03-14T23:04:49.783Z,14.2
2024-03-14T23:06:50.057Z,14.2
2024-03-14T23:08:50.144Z,15.0
2024-03-14T23:10:49.578Z,14.9
2024-03-14T23:12:49.941Z,14.9
2024-03-14T23:14:50.188Z,15.5
2024-03-14T23:16:50.242Z,15.5
2024-03-14T23:18:49.497Z,14.9
2024-03-14T23:20:49.682Z,16.4
2024-03-14T23:22:49.890Z,15.7
2024-03-14T23:24:50.127Z,13.9
2024-03-14T23:26:50.305Z,13.9
2024-03-14T23:28:49.848Z,15.2
2024-03-14T23:30:50.351Z,16.3
2024-03-14T23:32:49.810Z,16.9
2024-03-14T23:34:50.193Z,16.9
2024-03-14T23:36:49.663Z,15.6
2024-03-14T23:38:50.001Z,16.3
2024-03-14T23:40:50.190Z,15.4
2024-03-14T23:42:49.472Z,15.1
2024-03-14T23:44:49.655Z,15.1
2024-03-14T23:46:49.900Z,16.9
2024-03-14T23:48:50.437Z,16.8
2024-03-14T23:50:49.894Z,16.8
2024-03-14T23:52:50.091Z,15.3
2024-03-14T23:54:50.353Z,15.3
2024-03-14T23:56:49.547Z,17.0
2024-03-14T23:58:49.937Z,17.3
